sensor_id;sensor_type;location;lat;lon;timestamp;temperature;humidity
22035;DHT22;11181;51.002;4.356;2023-07-31T00:00:52;18.30;99.90
22035;DHT22;11181;51.002;4.356;2023-07-31T00:03:20;18.30;99.90
22035;DHT22;11181;51.002;4.356;2023-07-31T00:05:47;18.40;99.90
22035;DHT22;11181;51.002;4.356;2023-07-31T00:08:14;18.30;99.90
22035;DHT22;11181;51.002;4.356;2023-07-31T00:10:41;18.30;99.90
22035;DHT22;11181;51.002;4.356;2023-07-31T00:13:07;18.30;99.90
22035;DHT22;11181;51.002;4.356;2023-07-31T00:15:34;18.30;99.90
22035;DHT22;11181;51.002;4.356;2023-07-31T00:18:01;18.30;99.90
22035;DHT22;11181;51.002;4.356;2023-07-31T00:20:29;18.30;99.90
22035;DHT22;11181;51.002;4.356;2023-07-31T00:22:56;18.30;99.90
22035;DHT22;11181;51.002;4.356;2023-07-31T00:25:23;18.30;99.90
22035;DHT22;11181;51.002;4.356;2023-07-31T00:27:50;18.30;99.90
22035;DHT22;11181;51.002;4.356;2023-07-31T00:30:17;18.40;99.90
22035;DHT22;11181;51.002;4.356;2023-07-31T00:32:44;18.50;99.90
22035;DHT22;11181;51.002;4.356;2023-07-31T00:35:10;18.60;99.90
22035;DHT22;11181;51.002;4.356;2023-07-31T00:37:39;18.60;99.90
22035;DHT22;11181;51.002;4.356;2023-07-31T00:40:07;18.70;99.90
22035;DHT22;11181;51.002;4.356;2023-07-31T00:42:34;18.70;99.90
22035;DHT22;11181;51.002;4.356;2023-07-31T00:45:01;18.60;99.90
22035;DHT22;11181;51.002;4.356;2023-07-31T00:47:28;18.60;99.90
22035;DHT22;11181;51.002;4.356;2023-07-31T00:49:55;18.60;99.90
22035;DHT22;11181;51.002;4.356;2023-07-31T00:52:22;18.70;99.90
22035;DHT22;11181;51.002;4.356;2023-07-31T00:54:50;18.70;99.90
22035;DHT22;11181;51.002;4.356;2023-07-31T00:57:17;18.80;99.90
22035;DHT22;11181;51.002;4.356;2023-07-31T00:59:44;18.80;99.90
22035;DHT22;11181;51.002;4.356;2023-07-31T01:02:12;18.90;99.90
22035;DHT22;11181;51.002;4.356;2023-07-31T01:04:39;18.90;99.90
22035;DHT22;11181;51.002;4.356;2023-07-31T01:07:11;18.90;99.90
22035;DHT22;11181;51.002;4.356;2023-07-31T01:09:44;18.90;99.90
22035;DHT22;11181;51.002;4.356;2023-07-31T01:12:15;18.80;99.90
22035;DHT22;11181;51.002;4.356;2023-07-31T01:14:51;18.80;99.90
22035;DHT22;11181;51.002;4.356;2023-07-31T01:17:18;18.90;99.90
22035;DHT22;11181;51.002;4.356;2023-07-31T01:19:45;18.90;99.90
22035;DHT22;11181;51.002;4.356;2023-07-31T01:22:39;18.90;99.90
22035;DHT22;11181;51.002;4.356;2023-07-31T01:25:20;18.80;99.90
22035;DHT22;11181;51.002;4.356;2023-07-31T01:28:00;18.80;99.90
22035;DHT22;11181;51.002;4.356;2023-07-31T01:30:31;18.80;99.90
22035;DHT22;11181;51.002;4.356;2023-07-31T01:33:01;18.80;99.90
22035;DHT22;11181;51.002;4.356;2023-07-31T01:35:32;18.70;99.90
22035;DHT22;11181;51.002;4.356;2023-07-31T01:37:59;18.70;99.90
22035;DHT22;11181;51.002;4.356;2023-07-31T01:40:26;18.70;99.90
22035;DHT22;11181;51.002;4.356;2023-07-31T01:42:53;18.80;99.90
22035;DHT22;11181;51.002;4.356;2023-07-31T01:45:21;18.80;99.90
22035;DHT22;11181;51.002;4.356;2023-07-31T01:47:48;18.90;99.90
22035;DHT22;11181;51.002;4.356;2023-07-31T01:50:15;18.90;99.90
22035;DHT22;11181;51.002;4.356;2023-07-31T01:52:41;19.00;99.90
22035;DHT22;11181;51.002;4.356;2023-07-31T01:55:08;19.00;99.90
22035;DHT22;11181;51.002;4.356;2023-07-31T01:57:36;18.90;99.90
22035;DHT22;11181;51.002;4.356;2023-07-31T02:00:04;18.90;99.90
22035;DHT22;11181;51.002;4.356;2023-07-31T02:02:33;19.00;99.90
22035;DHT22;11181;51.002;4.356;2023-07-31T02:05:00;19.00;99.90
22035;DHT22;11181;51.002;4.356;2023-07-31T02:07:27;19.00;99.90
22035;DHT22;11181;51.002;4.356;2023-07-31T02:09:53;18.90;99.90
22035;DHT22;11181;51.002;4.356;2023-07-31T02:12:20;18.90;99.90
22035;DHT22;11181;51.002;4.356;2023-07-31T02:14:47;19.00;99.90
22035;DHT22;11181;51.002;4.356;2023-07-31T02:17:14;18.90;99.90
22035;DHT22;11181;51.002;4.356;2023-07-31T02:19:42;18.90;99.90
22035;DHT22;11181;51.002;4.356;2023-07-31T02:22:09;18.90;99.90
22035;DHT22;11181;51.002;4.356;2023-07-31T02:24:36;18.90;99.90
22035;DHT22;11181;51.002;4.356;2023-07-31T02:27:03;19.00;99.90
22035;DHT22;11181;51.002;4.356;2023-07-31T02:29:30;19.00;99.90
22035;DHT22;11181;51.002;4.356;2023-07-31T02:31:57;19.00;99.90
22035;DHT22;11181;51.002;4.356;2023-07-31T02:34:24;19.00;99.90
22035;DHT22;11181;51.002;4.356;2023-07-31T02:36:52;19.00;99.90
22035;DHT22;11181;51.002;4.356;2023-07-31T02:39:19;19.00;99.90
22035;DHT22;11181;51.002;4.356;2023-07-31T02:41:46;19.00;99.90
22035;DHT22;11181;51.002;4.356;2023-07-31T02:44:13;19.00;99.90
22035;DHT22;11181;51.002;4.356;2023-07-31T02:46:40;19.00;99.90
22035;DHT22;11181;51.002;4.356;2023-07-31T02:49:07;19.00;99.90
22035;DHT22;11181;51.002;4.356;2023-07-31T02:51:34;18.90;99.90
22035;DHT22;11181;51.002;4.356;2023-07-31T02:54:02;19.00;99.90
22035;DHT22;11181;51.002;4.356;2023-07-31T02:56:29;19.10;99.90
22035;DHT22;11181;51.002;4.356;2023-07-31T02:58:56;19.10;99.90
22035;DHT22;11181;51.002;4.356;2023-07-31T03:01:22;19.10;99.90
22035;DHT22;11181;51.002;4.356;2023-07-31T03:03:49;19.00;99.90
22035;DHT22;11181;51.002;4.356;2023-07-31T03:06:16;19.00;99.90
22035;DHT22;11181;51.002;4.356;2023-07-31T03:08:43;19.00;99.90
22035;DHT22;11181;51.002;4.356;2023-07-31T03:11:11;19.00;99.90
22035;DHT22;11181;51.002;4.356;2023-07-31T03:13:38;19.10;99.90
22035;DHT22;11181;51.002;4.356;2023-07-31T03:16:05;19.10;99.90
22035;DHT22;11181;51.002;4.356;2023-07-31T03:18:31;19.10;99.90
22035;DHT22;11181;51.002;4.356;2023-07-31T03:20:58;19.10;99.90
22035;DHT22;11181;51.002;4.356;2023-07-31T03:23:25;19.00;99.90
22035;DHT22;11181;51.002;4.356;2023-07-31T03:25:57;19.00;99.90
22035;DHT22;11181;51.002;4.356;2023-07-31T03:28:25;19.00;99.90
22035;DHT22;11181;51.002;4.356;2023-07-31T03:30:53;19.00;99.90
22035;DHT22;11181;51.002;4.356;2023-07-31T03:33:19;19.00;99.90
22035;DHT22;11181;51.002;4.356;2023-07-31T03:35:46;18.90;99.90
22035;DHT22;11181;51.002;4.356;2023-07-31T03:38:13;18.90;99.90
22035;DHT22;11181;51.002;4.356;2023-07-31T03:40:40;18.90;99.90
22035;DHT22;11181;51.002;4.356;2023-07-31T03:43:07;18.90;99.90
22035;DHT22;11181;51.002;4.356;2023-07-31T03:45:35;18.80;99.90
22035;DHT22;11181;51.002;4.356;2023-07-31T03:48:03;18.90;99.90
22035;DHT22;11181;51.002;4.356;2023-07-31T03:50:30;18.90;99.90
22035;DHT22;11181;51.002;4.356;2023-07-31T03:52:57;18.90;99.90
22035;DHT22;11181;51.002;4.356;2023-07-31T03:55:23;18.90;99.90
22035;DHT22;11181;51.002;4.356;2023-07-31T03:57:50;18.90;99.90
22035;DHT22;11181;51.002;4.356;2023-07-31T04:00:17;19.00;99.90
22035;DHT22;11181;51.002;4.356;2023-07-31T04:02:45;18.90;99.90
22035;DHT22;11181;51.002;4.356;2023-07-31T04:05:12;18.80;99.90
22035;DHT22;11181;51.002;4.356;2023-07-31T04:07:39;18.80;99.90
22035;DHT22;11181;51.002;4.356;2023-07-31T04:10:07;18.80;99.90
22035;DHT22;11181;51.002;4.356;2023-07-31T04:12:33;18.80;99.90
22035;DHT22;11181;51.002;4.356;2023-07-31T04:15:00;18.80;99.90
22035;DHT22;11181;51.002;4.356;2023-07-31T04:17:27;18.60;99.90
22035;DHT22;11181;51.002;4.356;2023-07-31T04:19:55;18.60;99.90
22035;DHT22;11181;51.002;4.356;2023-07-31T04:22:22;18.60;99.90
22035;DHT22;11181;51.002;4.356;2023-07-31T04:24:49;18.70;99.90
22035;DHT22;11181;51.002;4.356;2023-07-31T04:27:16;18.80;99.90
22035;DHT22;11181;51.002;4.356;2023-07-31T04:29:43;18.80;99.90
22035;DHT22;11181;51.002;4.356;2023-07-31T04:32:11;18.80;99.90
22035;DHT22;11181;51.002;4.356;2023-07-31T04:34:38;18.80;99.90
22035;DHT22;11181;51.002;4.356;2023-07-31T04:37:06;18.60;99.90
22035;DHT22;11181;51.002;4.356;2023-07-31T04:39:33;18.60;99.90
22035;DHT22;11181;51.002;4.356;2023-07-31T04:42:00;18.50;99.90
22035;DHT22;11181;51.002;4.356;2023-07-31T04:44:27;18.50;99.90
22035;DHT22;11181;51.002;4.356;2023-07-31T04:46:54;18.50;99.90
22035;DHT22;11181;51.002;4.356;2023-07-31T04:49:21;18.40;99.90
22035;DHT22;11181;51.002;4.356;2023-07-31T04:51:47;18.40;99.90
22035;DHT22;11181;51.002;4.356;2023-07-31T04:54:16;18.30;99.90
22035;DHT22;11181;51.002;4.356;2023-07-31T04:56:42;18.40;99.90
22035;DHT22;11181;51.002;4.356;2023-07-31T04:59:09;18.50;99.90
22035;DHT22;11181;51.002;4.356;2023-07-31T05:01:36;18.30;99.90
22035;DHT22;11181;51.002;4.356;2023-07-31T05:04:03;18.20;99.90
22035;DHT22;11181;51.002;4.356;2023-07-31T05:06:30;18.20;99.90
22035;DHT22;11181;51.002;4.356;2023-07-31T05:08:57;18.10;99.90
22035;DHT22;11181;51.002;4.356;2023-07-31T05:11:25;18.00;99.90
22035;DHT22;11181;51.002;4.356;2023-07-31T05:13:52;18.10;99.90
22035;DHT22;11181;51.002;4.356;2023-07-31T05:16:19;18.10;99.90
22035;DHT22;11181;51.002;4.356;2023-07-31T05:18:45;18.00;99.90
22035;DHT22;11181;51.002;4.356;2023-07-31T05:21:12;18.00;99.90
22035;DHT22;11181;51.002;4.356;2023-07-31T05:23:39;17.90;99.90
22035;DHT22;11181;51.002;4.356;2023-07-31T05:26:06;17.80;99.90
22035;DHT22;11181;51.002;4.356;2023-07-31T05:28:36;17.80;99.90
22035;DHT22;11181;51.002;4.356;2023-07-31T05:31:04;17.80;99.90
22035;DHT22;11181;51.002;4.356;2023-07-31T05:33:32;17.80;99.90
22035;DHT22;11181;51.002;4.356;2023-07-31T05:35:59;17.80;99.90
22035;DHT22;11181;51.002;4.356;2023-07-31T05:38:26;17.80;99.90
22035;DHT22;11181;51.002;4.356;2023-07-31T05:40:52;17.80;99.90
22035;DHT22;11181;51.002;4.356;2023-07-31T05:43:19;17.90;99.90
22035;DHT22;11181;51.002;4.356;2023-07-31T05:45:48;17.90;99.90
22035;DHT22;11181;51.002;4.356;2023-07-31T05:48:14;17.90;99.90
22035;DHT22;11181;51.002;4.356;2023-07-31T05:50:43;17.90;99.90
22035;DHT22;11181;51.002;4.356;2023-07-31T05:53:10;17.90;99.90
22035;DHT22;11181;51.002;4.356;2023-07-31T05:55:36;17.90;99.90
22035;DHT22;11181;51.002;4.356;2023-07-31T05:58:03;17.70;99.90
22035;DHT22;11181;51.002;4.356;2023-07-31T06:00:30;17.70;99.90
22035;DHT22;11181;51.002;4.356;2023-07-31T06:02:58;17.80;99.90
22035;DHT22;11181;51.002;4.356;2023-07-31T06:05:25;17.90;99.90
22035;DHT22;11181;51.002;4.356;2023-07-31T06:07:54;18.00;99.90
22035;DHT22;11181;51.002;4.356;2023-07-31T06:10:21;18.10;99.90
22035;DHT22;11181;51.002;4.356;2023-07-31T06:12:48;18.00;99.90
22035;DHT22;11181;51.002;4.356;2023-07-31T06:15:14;17.90;99.90
22035;DHT22;11181;51.002;4.356;2023-07-31T06:17:41;17.90;99.90
22035;DHT22;11181;51.002;4.356;2023-07-31T06:20:10;18.00;99.90
22035;DHT22;11181;51.002;4.356;2023-07-31T06:22:37;18.00;99.90
22035;DHT22;11181;51.002;4.356;2023-07-31T06:25:05;18.00;99.90
22035;DHT22;11181;51.002;4.356;2023-07-31T06:27:32;18.00;99.90
22035;DHT22;11181;51.002;4.356;2023-07-31T06:29:59;18.00;99.90
22035;DHT22;11181;51.002;4.356;2023-07-31T06:32:25;18.00;99.90
22035;DHT22;11181;51.002;4.356;2023-07-31T06:34:52;18.00;99.90
22035;DHT22;11181;51.002;4.356;2023-07-31T06:37:21;18.00;99.90
22035;DHT22;11181;51.002;4.356;2023-07-31T06:39:48;18.10;99.90
22035;DHT22;11181;51.002;4.356;2023-07-31T06:42:15;18.10;99.90
22035;DHT22;11181;51.002;4.356;2023-07-31T06:44:42;18.10;99.90
22035;DHT22;11181;51.002;4.356;2023-07-31T06:47:09;18.10;99.90
22035;DHT22;11181;51.002;4.356;2023-07-31T06:49:36;18.00;99.90
22035;DHT22;11181;51.002;4.356;2023-07-31T06:52:03;18.00;99.90
22035;DHT22;11181;51.002;4.356;2023-07-31T06:54:31;18.10;99.90
22035;DHT22;11181;51.002;4.356;2023-07-31T06:56:58;18.20;99.90
22035;DHT22;11181;51.002;4.356;2023-07-31T06:59:25;18.20;99.90
22035;DHT22;11181;51.002;4.356;2023-07-31T07:01:52;18.30;99.90
22035;DHT22;11181;51.002;4.356;2023-07-31T07:04:19;18.30;99.90
22035;DHT22;11181;51.002;4.356;2023-07-31T07:06:46;18.30;99.90
22035;DHT22;11181;51.002;4.356;2023-07-31T07:09:13;18.50;99.90
22035;DHT22;11181;51.002;4.356;2023-07-31T07:11:41;18.60;99.90
22035;DHT22;11181;51.002;4.356;2023-07-31T07:14:08;18.60;99.90
22035;DHT22;11181;51.002;4.356;2023-07-31T07:16:35;18.70;99.90
22035;DHT22;11181;51.002;4.356;2023-07-31T07:19:03;18.80;99.90
22035;DHT22;11181;51.002;4.356;2023-07-31T07:21:30;18.90;99.90
22035;DHT22;11181;51.002;4.356;2023-07-31T07:23:57;19.00;99.90
22035;DHT22;11181;51.002;4.356;2023-07-31T07:26:24;19.00;99.90
22035;DHT22;11181;51.002;4.356;2023-07-31T07:28:52;18.90;99.90
22035;DHT22;11181;51.002;4.356;2023-07-31T07:31:19;18.90;99.90
22035;DHT22;11181;51.002;4.356;2023-07-31T07:33:46;18.90;99.90
22035;DHT22;11181;51.002;4.356;2023-07-31T07:36:13;18.90;99.90
22035;DHT22;11181;51.002;4.356;2023-07-31T07:38:39;19.00;99.90
22035;DHT22;11181;51.002;4.356;2023-07-31T07:41:07;19.00;99.90
22035;DHT22;11181;51.002;4.356;2023-07-31T07:43:34;19.00;99.90
22035;DHT22;11181;51.002;4.356;2023-07-31T07:46:02;18.90;99.90
22035;DHT22;11181;51.002;4.356;2023-07-31T07:48:29;18.90;99.90
22035;DHT22;11181;51.002;4.356;2023-07-31T07:50:55;19.00;99.90
22035;DHT22;11181;51.002;4.356;2023-07-31T07:53:22;19.00;99.90
22035;DHT22;11181;51.002;4.356;2023-07-31T07:55:49;19.00;99.90
22035;DHT22;11181;51.002;4.356;2023-07-31T07:58:16;19.00;99.90
22035;DHT22;11181;51.002;4.356;2023-07-31T08:00:48;19.00;99.90
22035;DHT22;11181;51.002;4.356;2023-07-31T08:03:17;19.00;99.90
22035;DHT22;11181;51.002;4.356;2023-07-31T08:05:44;19.10;99.90
22035;DHT22;11181;51.002;4.356;2023-07-31T08:08:14;19.30;99.90
22035;DHT22;11181;51.002;4.356;2023-07-31T08:10:41;19.40;99.90
22035;DHT22;11181;51.002;4.356;2023-07-31T08:13:10;19.50;99.90
22035;DHT22;11181;51.002;4.356;2023-07-31T08:15:37;19.40;99.90
22035;DHT22;11181;51.002;4.356;2023-07-31T08:18:04;19.40;99.90
22035;DHT22;11181;51.002;4.356;2023-07-31T08:20:32;19.40;99.90
22035;DHT22;11181;51.002;4.356;2023-07-31T08:22:59;19.40;99.90
22035;DHT22;11181;51.002;4.356;2023-07-31T08:25:27;19.50;99.90
22035;DHT22;11181;51.002;4.356;2023-07-31T08:27:53;19.60;99.90
22035;DHT22;11181;51.002;4.356;2023-07-31T08:30:21;19.60;99.90
22035;DHT22;11181;51.002;4.356;2023-07-31T08:32:49;19.70;99.90
22035;DHT22;11181;51.002;4.356;2023-07-31T08:35:15;19.60;99.90
22035;DHT22;11181;51.002;4.356;2023-07-31T08:37:44;19.50;99.90
22035;DHT22;11181;51.002;4.356;2023-07-31T08:40:11;19.50;99.90
22035;DHT22;11181;51.002;4.356;2023-07-31T08:42:43;19.50;99.90
22035;DHT22;11181;51.002;4.356;2023-07-31T08:45:14;19.50;99.90
22035;DHT22;11181;51.002;4.356;2023-07-31T08:47:42;19.60;99.90
22035;DHT22;11181;51.002;4.356;2023-07-31T08:50:10;19.70;99.90
22035;DHT22;11181;51.002;4.356;2023-07-31T08:52:37;19.80;99.90
22035;DHT22;11181;51.002;4.356;2023-07-31T08:55:06;19.80;99.90
22035;DHT22;11181;51.002;4.356;2023-07-31T08:57:35;19.70;99.90
22035;DHT22;11181;51.002;4.356;2023-07-31T09:00:03;19.60;99.90
22035;DHT22;11181;51.002;4.356;2023-07-31T09:02:35;19.50;99.90
22035;DHT22;11181;51.002;4.356;2023-07-31T09:05:05;19.50;99.90
22035;DHT22;11181;51.002;4.356;2023-07-31T09:07:34;19.50;99.90
22035;DHT22;11181;51.002;4.356;2023-07-31T09:10:01;19.50;99.90
22035;DHT22;11181;51.002;4.356;2023-07-31T09:12:29;19.70;99.90
22035;DHT22;11181;51.002;4.356;2023-07-31T09:14:57;19.80;99.90
22035;DHT22;11181;51.002;4.356;2023-07-31T09:17:30;20.00;99.90
22035;DHT22;11181;51.002;4.356;2023-07-31T09:19:57;20.20;99.90
22035;DHT22;11181;51.002;4.356;2023-07-31T09:22:34;20.30;99.90
22035;DHT22;11181;51.002;4.356;2023-07-31T09:25:14;20.50;99.90
22035;DHT22;11181;51.002;4.356;2023-07-31T09:27:51;20.40;99.90
22035;DHT22;11181;51.002;4.356;2023-07-31T09:30:18;20.40;99.90
22035;DHT22;11181;51.002;4.356;2023-07-31T09:32:46;20.30;99.90
22035;DHT22;11181;51.002;4.356;2023-07-31T09:35:18;20.50;99.90
22035;DHT22;11181;51.002;4.356;2023-07-31T09:37:49;20.40;99.90
22035;DHT22;11181;51.002;4.356;2023-07-31T09:40:25;20.30;99.90
22035;DHT22;11181;51.002;4.356;2023-07-31T09:42:55;20.30;99.90
22035;DHT22;11181;51.002;4.356;2023-07-31T09:45:23;20.30;99.90
22035;DHT22;11181;51.002;4.356;2023-07-31T09:47:51;20.20;99.90
22035;DHT22;11181;51.002;4.356;2023-07-31T09:50:19;20.20;99.90
22035;DHT22;11181;51.002;4.356;2023-07-31T09:52:46;20.20;99.90
22035;DHT22;11181;51.002;4.356;2023-07-31T09:55:13;20.20;99.90
22035;DHT22;11181;51.002;4.356;2023-07-31T09:57:41;20.10;99.90
22035;DHT22;11181;51.002;4.356;2023-07-31T10:00:11;19.90;99.90
22035;DHT22;11181;51.002;4.356;2023-07-31T10:02:39;19.80;99.90
22035;DHT22;11181;51.002;4.356;2023-07-31T10:05:07;19.90;99.90
22035;DHT22;11181;51.002;4.356;2023-07-31T10:07:37;19.90;99.90
22035;DHT22;11181;51.002;4.356;2023-07-31T10:10:07;20.00;99.90
22035;DHT22;11181;51.002;4.356;2023-07-31T10:12:34;19.90;99.90
22035;DHT22;11181;51.002;4.356;2023-07-31T10:15:02;20.00;99.90
22035;DHT22;11181;51.002;4.356;2023-07-31T10:17:32;20.00;99.90
22035;DHT22;11181;51.002;4.356;2023-07-31T10:20:02;20.10;99.90
22035;DHT22;11181;51.002;4.356;2023-07-31T10:22:30;20.20;99.90
22035;DHT22;11181;51.002;4.356;2023-07-31T10:24:58;20.30;99.90
22035;DHT22;11181;51.002;4.356;2023-07-31T10:27:25;20.40;99.90
22035;DHT22;11181;51.002;4.356;2023-07-31T10:29:54;20.40;99.90
22035;DHT22;11181;51.002;4.356;2023-07-31T10:32:22;20.50;99.90
22035;DHT22;11181;51.002;4.356;2023-07-31T10:34:51;20.50;99.90
22035;DHT22;11181;51.002;4.356;2023-07-31T10:37:26;20.30;99.90
22035;DHT22;11181;51.002;4.356;2023-07-31T10:39:58;20.30;99.90
22035;DHT22;11181;51.002;4.356;2023-07-31T10:42:32;20.20;99.90
22035;DHT22;11181;51.002;4.356;2023-07-31T10:45:02;20.30;99.90
22035;DHT22;11181;51.002;4.356;2023-07-31T10:47:29;20.20;99.90
22035;DHT22;11181;51.002;4.356;2023-07-31T10:50:16;20.10;99.90
22035;DHT22;11181;51.002;4.356;2023-07-31T10:52:46;20.20;99.90
22035;DHT22;11181;51.002;4.356;2023-07-31T10:55:27;20.30;99.90
22035;DHT22;11181;51.002;4.356;2023-07-31T10:57:55;20.50;99.90
22035;DHT22;11181;51.002;4.356;2023-07-31T11:00:24;20.40;99.90
22035;DHT22;11181;51.002;4.356;2023-07-31T11:02:59;20.50;99.90
22035;DHT22;11181;51.002;4.356;2023-07-31T11:06:01;20.40;99.90
22035;DHT22;11181;51.002;4.356;2023-07-31T11:08:32;20.40;99.90
22035;DHT22;11181;51.002;4.356;2023-07-31T11:11:07;20.40;99.90
22035;DHT22;11181;51.002;4.356;2023-07-31T11:13:40;20.50;99.90
22035;DHT22;11181;51.002;4.356;2023-07-31T11:16:07;20.70;99.90
22035;DHT22;11181;51.002;4.356;2023-07-31T11:18:35;20.80;99.90
22035;DHT22;11181;51.002;4.356;2023-07-31T11:21:03;20.90;99.90
22035;DHT22;11181;51.002;4.356;2023-07-31T11:23:30;21.00;99.90
22035;DHT22;11181;51.002;4.356;2023-07-31T11:25:59;20.90;99.90
22035;DHT22;11181;51.002;4.356;2023-07-31T11:28:31;21.10;99.90
22035;DHT22;11181;51.002;4.356;2023-07-31T11:30:58;21.10;99.90
22035;DHT22;11181;51.002;4.356;2023-07-31T11:33:25;21.10;99.90
22035;DHT22;11181;51.002;4.356;2023-07-31T11:35:52;21.10;99.90
22035;DHT22;11181;51.002;4.356;2023-07-31T11:38:24;21.20;99.90
22035;DHT22;11181;51.002;4.356;2023-07-31T11:40:52;21.40;99.90
22035;DHT22;11181;51.002;4.356;2023-07-31T11:43:19;21.60;99.90
22035;DHT22;11181;51.002;4.356;2023-07-31T11:45:48;21.30;99.90
22035;DHT22;11181;51.002;4.356;2023-07-31T11:48:22;21.30;99.90
22035;DHT22;11181;51.002;4.356;2023-07-31T11:50:51;21.20;99.90
22035;DHT22;11181;51.002;4.356;2023-07-31T11:53:21;21.10;99.90
22035;DHT22;11181;51.002;4.356;2023-07-31T11:55:50;21.00;99.90
22035;DHT22;11181;51.002;4.356;2023-07-31T11:58:18;21.10;99.90
22035;DHT22;11181;51.002;4.356;2023-07-31T12:00:46;21.10;99.90
22035;DHT22;11181;51.002;4.356;2023-07-31T12:03:13;21.10;99.90
22035;DHT22;11181;51.002;4.356;2023-07-31T12:05:40;21.10;99.90
22035;DHT22;11181;51.002;4.356;2023-07-31T12:08:11;21.00;99.90
22035;DHT22;11181;51.002;4.356;2023-07-31T12:10:38;21.10;99.90
22035;DHT22;11181;51.002;4.356;2023-07-31T12:13:09;21.10;99.90
22035;DHT22;11181;51.002;4.356;2023-07-31T12:15:40;21.10;99.90
22035;DHT22;11181;51.002;4.356;2023-07-31T12:18:09;21.00;99.90
22035;DHT22;11181;51.002;4.356;2023-07-31T12:20:41;21.00;99.90
22035;DHT22;11181;51.002;4.356;2023-07-31T12:23:14;21.10;99.90
22035;DHT22;11181;51.002;4.356;2023-07-31T12:25:41;21.20;99.90
22035;DHT22;11181;51.002;4.356;2023-07-31T12:28:09;21.30;99.90
22035;DHT22;11181;51.002;4.356;2023-07-31T12:30:39;21.30;99.90
22035;DHT22;11181;51.002;4.356;2023-07-31T12:33:12;21.30;99.90
22035;DHT22;11181;51.002;4.356;2023-07-31T12:35:42;21.40;99.90
22035;DHT22;11181;51.002;4.356;2023-07-31T12:38:10;21.50;99.90
22035;DHT22;11181;51.002;4.356;2023-07-31T12:40:38;21.50;99.90
22035;DHT22;11181;51.002;4.356;2023-07-31T12:43:06;21.60;99.90
22035;DHT22;11181;51.002;4.356;2023-07-31T12:45:35;21.70;99.90
22035;DHT22;11181;51.002;4.356;2023-07-31T12:48:02;21.70;99.90
22035;DHT22;11181;51.002;4.356;2023-07-31T12:50:29;21.50;99.90
22035;DHT22;11181;51.002;4.356;2023-07-31T12:52:56;21.60;99.90
22035;DHT22;11181;51.002;4.356;2023-07-31T12:55:23;21.60;99.90
22035;DHT22;11181;51.002;4.356;2023-07-31T12:57:50;21.60;99.90
22035;DHT22;11181;51.002;4.356;2023-07-31T13:00:18;21.60;99.90
22035;DHT22;11181;51.002;4.356;2023-07-31T13:02:46;21.50;99.90
22035;DHT22;11181;51.002;4.356;2023-07-31T13:05:13;21.50;99.90
22035;DHT22;11181;51.002;4.356;2023-07-31T13:07:40;21.40;99.90
22035;DHT22;11181;51.002;4.356;2023-07-31T13:10:08;21.40;99.90
22035;DHT22;11181;51.002;4.356;2023-07-31T13:12:35;21.40;99.90
22035;DHT22;11181;51.002;4.356;2023-07-31T13:15:02;21.30;99.90
22035;DHT22;11181;51.002;4.356;2023-07-31T13:17:29;21.10;99.90
22035;DHT22;11181;51.002;4.356;2023-07-31T13:19:57;21.00;99.90
22035;DHT22;11181;51.002;4.356;2023-07-31T13:22:24;21.00;99.90
22035;DHT22;11181;51.002;4.356;2023-07-31T13:24:51;20.90;99.90
22035;DHT22;11181;51.002;4.356;2023-07-31T13:27:18;20.60;99.90
22035;DHT22;11181;51.002;4.356;2023-07-31T13:29:47;20.30;99.90
22035;DHT22;11181;51.002;4.356;2023-07-31T13:32:14;20.20;99.90
22035;DHT22;11181;51.002;4.356;2023-07-31T13:34:41;20.10;99.90
22035;DHT22;11181;51.002;4.356;2023-07-31T13:37:09;20.10;99.90
22035;DHT22;11181;51.002;4.356;2023-07-31T13:39:36;20.10;99.90
22035;DHT22;11181;51.002;4.356;2023-07-31T13:42:03;20.20;99.90
22035;DHT22;11181;51.002;4.356;2023-07-31T13:44:32;20.10;99.90
22035;DHT22;11181;51.002;4.356;2023-07-31T13:46:59;20.10;99.90
22035;DHT22;11181;51.002;4.356;2023-07-31T13:49:26;20.10;99.90
22035;DHT22;11181;51.002;4.356;2023-07-31T13:51:52;20.00;99.90
22035;DHT22;11181;51.002;4.356;2023-07-31T13:54:21;19.90;99.90
22035;DHT22;11181;51.002;4.356;2023-07-31T13:56:48;19.80;99.90
22035;DHT22;11181;51.002;4.356;2023-07-31T13:59:15;19.70;99.90
22035;DHT22;11181;51.002;4.356;2023-07-31T14:01:43;19.60;99.90
22035;DHT22;11181;51.002;4.356;2023-07-31T14:04:10;19.50;99.90
22035;DHT22;11181;51.002;4.356;2023-07-31T14:06:37;19.50;99.90
22035;DHT22;11181;51.002;4.356;2023-07-31T14:09:04;19.40;99.90
22035;DHT22;11181;51.002;4.356;2023-07-31T14:11:33;19.40;99.90
22035;DHT22;11181;51.002;4.356;2023-07-31T14:14:00;19.40;99.90
22035;DHT22;11181;51.002;4.356;2023-07-31T14:16:28;19.40;99.90
22035;DHT22;11181;51.002;4.356;2023-07-31T14:18:55;19.40;99.90
22035;DHT22;11181;51.002;4.356;2023-07-31T14:21:24;19.40;99.90
22035;DHT22;11181;51.002;4.356;2023-07-31T14:23:51;19.40;99.90
22035;DHT22;11181;51.002;4.356;2023-07-31T14:26:18;19.50;99.90
22035;DHT22;11181;51.002;4.356;2023-07-31T14:28:46;19.40;99.90
22035;DHT22;11181;51.002;4.356;2023-07-31T14:31:13;19.40;99.90
22035;DHT22;11181;51.002;4.356;2023-07-31T14:33:41;19.50;99.90
22035;DHT22;11181;51.002;4.356;2023-07-31T14:36:08;19.60;99.90
22035;DHT22;11181;51.002;4.356;2023-07-31T14:38:34;19.60;99.90
22035;DHT22;11181;51.002;4.356;2023-07-31T14:41:01;19.60;99.90
22035;DHT22;11181;51.002;4.356;2023-07-31T14:43:28;19.50;99.90
22035;DHT22;11181;51.002;4.356;2023-07-31T14:45:57;19.30;99.90
22035;DHT22;11181;51.002;4.356;2023-07-31T14:48:25;19.20;99.90
22035;DHT22;11181;51.002;4.356;2023-07-31T14:50:52;19.20;99.90
22035;DHT22;11181;51.002;4.356;2023-07-31T14:53:19;19.30;99.90
22035;DHT22;11181;51.002;4.356;2023-07-31T14:55:46;19.30;99.90
22035;DHT22;11181;51.002;4.356;2023-07-31T14:58:13;19.30;99.90
22035;DHT22;11181;51.002;4.356;2023-07-31T15:00:40;19.20;99.90
22035;DHT22;11181;51.002;4.356;2023-07-31T15:03:08;19.30;99.90
22035;DHT22;11181;51.002;4.356;2023-07-31T15:05:35;19.30;99.90
22035;DHT22;11181;51.002;4.356;2023-07-31T15:08:02;19.30;99.90
22035;DHT22;11181;51.002;4.356;2023-07-31T15:10:29;19.30;99.90
22035;DHT22;11181;51.002;4.356;2023-07-31T15:12:56;19.30;99.90
22035;DHT22;11181;51.002;4.356;2023-07-31T15:15:23;19.20;99.90
22035;DHT22;11181;51.002;4.356;2023-07-31T15:17:50;19.20;99.90
22035;DHT22;11181;51.002;4.356;2023-07-31T15:20:18;19.20;99.90
22035;DHT22;11181;51.002;4.356;2023-07-31T15:22:45;19.10;99.90
22035;DHT22;11181;51.002;4.356;2023-07-31T15:25:12;19.10;99.90
22035;DHT22;11181;51.002;4.356;2023-07-31T15:27:39;19.10;99.90
22035;DHT22;11181;51.002;4.356;2023-07-31T15:30:07;19.10;99.90
22035;DHT22;11181;51.002;4.356;2023-07-31T15:32:37;19.20;99.90
22035;DHT22;11181;51.002;4.356;2023-07-31T15:35:04;19.10;99.90